Flight Track Log - Related Links

Times and Time Zones

All times are in EST time to prevent confusion due to time zone crossing. See the GJS3680 flight status page for this flight to view local times or setup timezone preferences in your user account.

Time Position Orientation Groundspeed Altitude Reporting Facility
EST Latitude Longitude Course Direction KTS MPH feet Rate Location/Type
Fri 07:09:54 AM 38.7833 -90.4500 280° West 156 180 3,000  Level Gateway (St. Louis) TRACON
Fri 07:10:54 AM 38.8000 -90.5167 288° West 182 209 5,300 2,231 Climbing Gateway (St. Louis) TRACON
Fri 07:11:55 AM 38.8167 -90.5833 288° West 212 244 7,500 2,134 Climbing Gateway (St. Louis) TRACON
Fri 07:13:00 AM 38.8390 -91.0236 280° West  Level Estimated
Fri 07:13:23 AM 38.8275 -90.6750 279° West 214 246 10,600  Level Kansas City Center
Fri 07:14:00 AM 38.8566 -91.1546 280° West  Level Estimated
Fri 07:14:23 AM 38.8497 -90.7839 285° West 261 300 12,200  Level Kansas City Center
Fri 07:15:00 AM 38.8741 -91.2855 280° West  Level Estimated
Fri 07:15:21 AM 38.8703 -90.8817 285° West 279 321 14,100  Level Kansas City Center
Fri 07:16:24 AM 38.8906 -90.9842 284° West 292 336 15,800 1,742 Climbing Kansas City Center
Fri 07:17:25 AM 38.9128 -91.0894 285° West 300 345 17,700 1,916 Climbing Kansas City Center
Fri 07:18:23 AM 38.9325 -91.1958 283° West 306 352 19,600 1,750 Climbing Kansas City Center
Fri 07:19:25 AM 38.9564 -91.3117 285° West 306 352 21,200 1,636 Climbing Kansas City Center
Fri 07:20:24 AM 38.9747 -91.4083 284° West 306 352 22,900 1,550 Climbing Kansas City Center
Fri 07:21:25 AM 38.9956 -91.5136 284° West 306 352 24,300 1,210 Climbing Kansas City Center
Fri 07:22:28 AM 39.0169 -91.6200 285° West 306 352 25,400 976 Climbing Kansas City Center
Fri 07:23:28 AM 39.0375 -91.7289 284° West 315 362 26,300 1,000 Climbing Kansas City Center
Fri 07:24:28 AM 39.0586 -91.8417 284° West 318 366 27,400 984 Climbing Kansas City Center
Fri 07:25:30 AM 39.0803 -91.9556 284° West 322 371 28,300 793 Climbing Kansas City Center
Fri 07:26:29 AM 39.1033 -92.0744 284° West 335 386 29,000 655 Climbing Kansas City Center
Fri 07:27:29 AM 39.1200 -92.1953 280° West 338 389 29,600 629 Climbing Kansas City Center
Fri 07:28:33 AM 39.1283 -92.3228 275° West 349 402 30,300 738 Climbing Kansas City Center
Fri 07:29:31 AM 39.1394 -92.4753 275° West 354 407 31,100 645 Climbing Kansas City Center
Fri 07:30:34 AM 39.1492 -92.6014 276° West 354 407 31,600 488 Climbing Kansas City Center
Fri 07:31:34 AM 39.1586 -92.7317 275° West 358 412 32,100 446 Climbing Kansas City Center
Fri 07:32:35 AM 39.1658 -92.8386 275° West 363 418 32,500 492 Climbing Kansas City Center
Fri 07:33:36 AM 39.1781 -92.9997 276° West 370 426 33,100 550 Climbing Kansas City Center
Fri 07:34:35 AM 39.1872 -93.1356 275° West 376 433 33,600 496 Climbing Kansas City Center
Fri 07:35:37 AM 39.1961 -93.2722 275° West 378 435 34,100 537 Climbing Kansas City Center
Fri 07:36:38 AM 39.2056 -93.4133 275° West 379 436 34,700 496 Climbing Kansas City Center
Fri 07:37:38 AM 39.2147 -93.5458 275° West 389 448 35,100 443 Climbing Kansas City Center
Fri 07:38:40 AM 39.2233 -93.6792 275° West 388 447 35,600 446 Climbing Kansas City Center
Fri 07:39:39 AM 39.2331 -93.8336 275° West 389 448 36,000 197 Climbing Kansas City Center
Fri 07:40:42 AM 39.2408 -93.9703 274° West 395 455 36,000  Level Kansas City Center
Fri 07:41:42 AM 39.2483 -94.1033 274° West 393 452 36,000  Level Kansas City Center
Fri 07:42:43 AM 39.2589 -94.2578 275° West 389 448 36,000  Level Kansas City Center
Fri 07:43:41 AM 39.2661 -94.3906 274° West 389 448 36,000  Level Kansas City Center
Fri 07:44:45 AM 39.2739 -94.5222 274° West 386 444 36,000  Level Kansas City Center
Fri 07:45:45 AM 39.2822 -94.6747 274° West 385 443 36,000  Level Kansas City Center
Fri 07:46:47 AM 39.3222 -94.7950 293° West 391 450 36,000  Level Kansas City Center
Fri 07:47:45 AM 39.3986 -94.9147 310° West 387 445 36,000  Level Kansas City Center
Fri 07:48:48 AM 39.4642 -95.0186 309° West 391 450 36,000  Level Kansas City Center
Fri 07:49:47 AM 39.5361 -95.1322 309° West 391 450 36,000  Level Kansas City Center
Fri 07:50:50 AM 39.6069 -95.2439 309° West 391 450 36,000  Level Kansas City Center
Fri 07:51:51 AM 39.6703 -95.3464 309° West 390 449 36,000  Level Kansas City Center
Fri 07:52:52 AM 39.7364 -95.4514 309° West 391 450 36,000  Level Kansas City Center
Fri 07:53:51 AM 39.8125 -95.5744 309° West 391 450 36,000  Level Kansas City Center
Fri 07:54:54 AM 39.8778 -95.6775 310° West 389 448 36,000  Level Kansas City Center
Fri 07:55:55 AM 39.9539 -95.8019 309° West 390 449 36,000  Level Kansas City Center
Fri 07:56:53 AM 40.0192 -95.9086 309° West 396 456 36,000  Level Kansas City Center
Fri 07:57:55 AM 40.0864 -96.0167 309° West 397 457 36,000  Level Kansas City Center
Fri 07:58:56 AM 40.1636 -96.1433 309° West 400 460 36,000  Level Kansas City Center
Fri 07:59:28 AM 40.1872 -96.1864 306° West 397 457 36,000  Level Minneapolis Center
Fri 08:00:29 AM 40.2272 -96.3508 288° West 390 449 36,000  Level Minneapolis Center
Fri 08:01:29 AM 40.2539 -96.4875 284° West 389 448 36,000  Level Minneapolis Center
Fri 08:02:30 AM 40.2803 -96.6261 284° West 390 449 36,000  Level Minneapolis Center
Fri 08:03:31 AM 40.3061 -96.7644 284° West 390 449 36,000  Level Minneapolis Center
Fri 08:04:32 AM 40.3319 -96.9036 284° West 392 451 36,000  Level Minneapolis Center
Fri 08:05:33 AM 40.3578 -97.0414 284° West 390 449 36,000  Level Minneapolis Center
Fri 08:06:34 AM 40.3836 -97.1808 284° West 391 450 36,000  Level Minneapolis Center
Fri 08:07:35 AM 40.4083 -97.3186 283° West 389 448 36,000  Level Minneapolis Center
Fri 08:08:36 AM 40.4350 -97.4731 283° West 393 452 36,000  Level Minneapolis Center
Fri 08:09:37 AM 40.4611 -97.6119 284° West 392 451 36,000  Level Minneapolis Center
Fri 08:10:38 AM 40.4861 -97.7519 283° West 393 452 36,000  Level Minneapolis Center
Fri 08:11:38 AM 40.5106 -97.8908 283° West 390 449 36,000  Level Minneapolis Center
Fri 08:12:39 AM 40.5347 -98.0297 283° West 390 449 36,000  Level Minneapolis Center
Fri 08:13:41 AM 40.5583 -98.1686 283° West 388 447 36,000  Level Minneapolis Center
Fri 08:14:42 AM 40.5836 -98.3047 284° West 385 443 36,000  Level Minneapolis Center
Fri 08:15:43 AM 40.6053 -98.4419 282° West 383 441 36,000  Level Minneapolis Center
Fri 08:16:44 AM 40.6181 -98.5797 277° West 378 435 36,000  Level Minneapolis Center
Fri 08:17:45 AM 40.6303 -98.7169 277° West 376 433 36,000  Level Minneapolis Center
Fri 08:18:46 AM 40.6419 -98.8533 276° West 374 430 36,000  Level Minneapolis Center
Fri 08:19:47 AM 40.6547 -98.9900 277° West 373 429 36,000  Level Minneapolis Center
Fri 08:20:48 AM 40.6667 -99.1256 277° West 371 427 36,000  Level Minneapolis Center
Fri 08:21:41 AM 40.6747 -99.2333 276° West 371 427 36,000  Level Denver Center
Fri 08:22:41 AM 40.6864 -99.3683 277° West 368 423 36,000  Level Denver Center
Fri 08:23:42 AM 40.6981 -99.5031 277° West 368 423 36,000  Level Denver Center
Fri 08:24:42 AM 40.7111 -99.6658 276° West 370 426 36,000  Level Denver Center
Fri 08:25:43 AM 40.7222 -99.8008 276° West 370 426 36,000  Level Denver Center
Fri 08:26:43 AM 40.7319 -99.9286 276° West 372 428 36,000  Level Denver Center
Fri 08:27:44 AM 40.7422 -100.0589 276° West 372 428 36,000  Level Denver Center
Fri 08:28:45 AM 40.7542 -100.2094 276° West 371 427 36,000  Level Denver Center
Fri 08:29:45 AM 40.7633 -100.3383 275° West 369 425 36,000  Level Denver Center
Fri 08:30:46 AM 40.7731 -100.4669 276° West 369 425 36,000  Level Denver Center
Fri 08:31:46 AM 40.7828 -100.5956 276° West 367 422 36,000  Level Denver Center
Fri 08:32:47 AM 40.7728 -100.7494 265° West 389 448 36,000  Level Denver Center
Fri 08:33:48 AM 40.7503 -100.8778 257° West 366 421 36,000  Level Denver Center
Fri 08:34:48 AM 40.7281 -101.0083 257° West 376 433 36,000  Level Denver Center
Fri 08:35:49 AM 40.7056 -101.1367 257° West 376 433 36,000  Level Denver Center
Fri 08:36:50 AM 40.6800 -101.2853 257° West 372 428 36,000  Level Denver Center
Fri 08:37:50 AM 40.6617 -101.3919 257° West 373 429 36,000  Level Denver Center
Fri 08:38:51 AM 40.6350 -101.5417 257° West 376 433 36,000  Level Denver Center
Fri 08:39:52 AM 40.6086 -101.6897 257° West 375 432 36,000  Level Denver Center
Fri 08:40:52 AM 40.5858 -101.8175 257° West 374 430 36,000  Level Denver Center
Fri 08:41:53 AM 40.5614 -101.9450 256° West 376 433 36,000  Level Denver Center
Fri 08:42:54 AM 40.5356 -102.0969 257° West 382 440 36,000  Level Denver Center
Fri 08:43:55 AM 40.5117 -102.2244 256° West 377 434 36,000  Level Denver Center
Fri 08:44:55 AM 40.4883 -102.3531 257° West 378 435 36,000  Level Denver Center
Fri 08:45:56 AM 40.4606 -102.5036 256° West 379 436 36,000 -639 Level Denver Center
Fri 08:46:57 AM 40.4364 -102.6328 256° West 382 440 34,700 -1,721 Descending Denver Center
Fri 08:47:58 AM 40.4111 -102.7592 255° West 383 441 32,500 -2,132 Descending Denver Center
Fri 08:48:58 AM 40.3867 -102.8881 256° West 367 422 30,400 -2,083 Descending Denver Center
Fri 08:49:59 AM 40.3628 -103.0133 256° West 358 412 28,300 -2,262 Descending Denver Center
Fri 08:51:00 AM 40.3350 -103.1533 255° West 333 383 25,800 -2,262 Descending Denver Center
Fri 08:52:01 AM 40.3139 -103.2689 257° West 329 379 23,700 -2,066 Descending Denver Center
Fri 08:53:02 AM 40.2919 -103.3842 256° West 328 377 21,600 -2,066 Descending Denver Center
Fri 08:54:03 AM 40.2692 -103.4994 256° West 328 377 19,500 -1,918 Descending Denver Center
Fri 08:55:04 AM 40.2472 -103.6125 256° West 323 372 17,700 -1,230 Descending Denver Center
Fri 08:56:05 AM 40.2247 -103.7208 255° West 315 362 17,000 -344 Descending Denver Center
Fri 08:57:06 AM 40.2078 -103.8211 258° West 281 323 17,000 -397 Level Denver Center
Fri 08:58:06 AM 40.1697 -103.9164 242° Southwest 277 319 16,200 -1,240 Descending Denver Center
Fri 08:59:07 AM 40.1300 -104.0058 240° Southwest 282 325 14,500 -1,426 Descending Denver Center
Fri 09:00:08 AM 40.0908 -104.0900 239° Southwest 275 316 13,300 -787 Descending Denver Center
Fri 09:01:09 AM 40.0258 -104.1278 204° Southwest 282 325 12,900 -689 Descending Denver Center
Fri 09:02:10 AM 39.9592 -104.1544 197° South 257 296 11,900 -836 Descending Denver Center
Fri 09:03:11 AM 39.9292 -104.2206 239° Southwest 212 244 11,200 -787 Descending Denver Center
Fri 09:04:12 AM 39.9056 -104.2953 248° West 208 239 10,300 -934 Descending Denver Center
Fri 09:05:13 AM 39.8869 -104.3628 250° West 200 230 9,300 -947 Descending Denver Center
Fri 09:05:47 AM 39.8833 -104.4000 263° West 175 201 8,800 -900 Descending Denver TRACON
Fri 09:06:53 AM 39.8833 -104.4500 270° West 144 166 7,800 -850 Descending Denver TRACON
Fri 09:07:54 AM 39.8833 -104.5000 270° West 147 169 7,000 -744 Descending Denver TRACON
Fri 09:08:54 AM 39.8833 -104.5500 270° West 122 140 6,300 -667 Descending Denver TRACON
Fri 09:09:51 AM 39.8833 -104.6000 270° West 116 133 5,700 -417 Descending Denver TRACON
Fri 09:11:18 AM 39.8769 -104.6456 260° West 89 102 5,300 -276 Descending Denver Center
Fri 09:13:00 AM 39.8500 -104.6667 255° West  Level FlightAware Approximate
Fri 09:20:00 AM 39.8617 -104.6732 255° West  Level Estimated
Fri 09:21:00 AM 39.8617 -104.6732 255° West  Level Estimated

Login

Don't have an account? Register now (free) for customized features, flight alerts, and more!